SEKLV ESGG-ESGG
Flight info
| Callsign | SEKLV |
|---|---|
| Flight time | N/A |
| Altitude | |
| Route | |
| Aircraft |
Departure
| Time | 2026-05-05 12:33 |
|---|---|
| Airport | Göteborg Landvetter Airport (ESGG) |
Arrival
| Time | N/A |
|---|---|
| Airport | Göteborg Landvetter Airport (ESGG) |
| Time | Latitude | Longitude | Altitude | Speed | Heading |
|---|---|---|---|---|---|
| 2026-05-05 12:20 | 57.66499 | 12.28816 | 511 ft | 0 kts | 296° |
| 2026-05-05 12:24 | 57.66504 | 12.28818 | 511 ft | 4 kts | 66° |
| 2026-05-05 12:24 | 57.66485 | 12.28877 | 511 ft | 6 kts | 121° |
| 2026-05-05 12:24 | 57.66480 | 12.28956 | 511 ft | 7 kts | 38° |
| 2026-05-05 12:25 | 57.66525 | 12.28959 | 511 ft | 6 kts | 314° |
| 2026-05-05 12:25 | 57.66557 | 12.28948 | 511 ft | 6 kts | 12° |
| 2026-05-05 12:25 | 57.66605 | 12.28974 | 511 ft | 9 kts | 327° |
| 2026-05-05 12:25 | 57.66645 | 12.28861 | 511 ft | 12 kts | 327° |
| 2026-05-05 12:26 | 57.66736 | 12.28899 | 511 ft | 17 kts | 26° |
| 2026-05-05 12:26 | 57.66855 | 12.29006 | 511 ft | 21 kts | 29° |
| 2026-05-05 12:26 | 57.66999 | 12.29144 | 511 ft | 25 kts | 25° |
| 2026-05-05 12:26 | 57.67109 | 12.29242 | 511 ft | 28 kts | 20° |
| 2026-05-05 12:27 | 57.67282 | 12.29400 | 511 ft | 26 kts | 26° |
| 2026-05-05 12:27 | 57.67374 | 12.29481 | 511 ft | 11 kts | 20° |
| 2026-05-05 12:27 | 57.67421 | 12.29436 | 513 ft | 6 kts | 296° |
| 2026-05-05 12:27 | 57.67446 | 12.29345 | 512 ft | 11 kts | 296° |
| 2026-05-05 12:28 | 57.67461 | 12.29244 | 510 ft | 0 kts | 267° |
| 2026-05-05 12:31 | 57.67460 | 12.29213 | 509 ft | 6 kts | 266° |
| 2026-05-05 12:31 | 57.67437 | 12.29067 | 508 ft | 17 kts | 241° |
| 2026-05-05 12:32 | 57.67295 | 12.28900 | 511 ft | 42 kts | 205° |
| 2026-05-05 12:32 | 57.66901 | 12.28546 | 569 ft | 76 kts | 216° |
| 2026-05-05 12:32 | 57.66427 | 12.28083 | 785 ft | 79 kts | 213° |
| 2026-05-05 12:32 | 57.65900 | 12.27661 | 1017 ft | 85 kts | 218° |
| 2026-05-05 12:33 | 57.65435 | 12.26966 | 1290 ft | 84 kts | 239° |
| 2026-05-05 12:33 | 57.65272 | 12.25972 | 1529 ft | 80 kts | 274° |
| 2026-05-05 12:33 | 57.65402 | 12.24975 | 1771 ft | 83 kts | 304° |
| 2026-05-05 12:33 | 57.65922 | 12.24595 | 2203 ft | 91 kts | 3° |
| 2026-05-05 12:34 | 57.66519 | 12.25247 | 2366 ft | 104 kts | 23° |
| 2026-05-05 12:34 | 57.67211 | 12.26016 | 2056 ft | 133 kts | 25° |
| 2026-05-05 12:34 | 57.67961 | 12.27010 | 1813 ft | 130 kts | 31° |
| 2026-05-05 12:34 | 57.68652 | 12.28069 | 1513 ft | 125 kts | 36° |
| 2026-05-05 12:35 | 57.69203 | 12.29253 | 1404 ft | 125 kts | 65° |
| 2026-05-05 12:35 | 57.68866 | 12.30657 | 1206 ft | 125 kts | 162° |
| 2026-05-05 12:35 | 57.68252 | 12.30043 | 906 ft | 106 kts | 239° |
| 2026-05-05 12:35 | 57.67673 | 12.29253 | 599 ft | 106 kts | 210° |
| 2026-05-05 12:36 | 57.67067 | 12.28701 | 518 ft | 83 kts | 216° |
| 2026-05-05 12:36 | 57.66625 | 12.28294 | 513 ft | 58 kts | 209° |
| 2026-05-05 12:36 | 57.66277 | 12.27972 | 507 ft | 68 kts | 208° |